createdAt,value
2022-08-05T00:02:52.181Z,94
2022-08-05T00:12:56.287Z,93
2022-08-05T00:22:56.038Z,92
2022-08-05T00:32:52.767Z,92
2022-08-05T00:42:53.085Z,92
2022-08-05T00:52:55.222Z,92
2022-08-05T01:02:54.657Z,93
2022-08-05T01:13:05.140Z,93
2022-08-05T01:32:56.333Z,94
2022-08-05T01:42:57.427Z,94
2022-08-05T01:52:57.607Z,94
2022-08-05T02:02:58.328Z,95
2022-08-05T02:12:58.807Z,95
2022-08-05T02:22:59.646Z,95
2022-08-05T02:32:59.702Z,95
2022-08-05T02:43:00.466Z,95
2022-08-05T02:53:01.194Z,95
2022-08-05T03:03:01.745Z,95
2022-08-05T03:23:02.895Z,96
2022-08-05T03:33:03.712Z,97
2022-08-05T03:43:16.151Z,98
2022-08-05T03:54:59.518Z,98
2022-08-05T04:03:05.696Z,98
2022-08-05T04:23:06.994Z,99
2022-08-05T04:33:07.680Z,99
2022-08-05T04:43:10.915Z,99
2022-08-05T05:03:10.189Z,99
2022-08-05T05:13:10.719Z,99
2022-08-05T05:23:19.664Z,99
2022-08-05T05:33:15.867Z,99
2022-08-05T05:43:12.750Z,98
2022-08-05T06:03:28.528Z,98
2022-08-05T06:23:14.594Z,98
2022-08-05T06:43:51.869Z,98
2022-08-05T07:03:17.161Z,98
2022-08-05T07:23:26.188Z,97
2022-08-05T07:33:18.527Z,97
2022-08-05T07:53:20.094Z,97
2022-08-05T08:13:29.252Z,96
2022-08-05T08:24:00.939Z,96
2022-08-05T08:33:22.975Z,96
2022-08-05T08:45:17.218Z,96
2022-08-05T08:53:24.868Z,96
2022-08-05T09:03:25.610Z,96
2022-08-05T09:13:31.618Z,96
2022-08-05T09:23:27.140Z,96
2022-08-05T09:33:31.754Z,96
2022-08-05T09:43:27.452Z,96
2022-08-05T09:53:54.200Z,96
2022-08-05T10:03:38.628Z,96
2022-08-05T10:13:31.770Z,95
2022-08-05T10:23:34.872Z,94
2022-08-05T10:33:30.193Z,92
2022-08-05T11:03:33.610Z,86
2022-08-05T11:13:33.604Z,86
2022-08-05T11:24:03.702Z,83
2022-08-05T11:33:34.677Z,83
2022-08-05T11:53:40.975Z,81
2022-08-05T12:03:36.246Z,79
2022-08-05T12:13:49.178Z,79
2022-08-05T12:53:38.859Z,76
2022-08-05T13:23:50.492Z,73
2022-08-05T13:34:23.713Z,74
2022-08-05T13:43:43.837Z,73
2022-08-05T13:53:47.594Z,69
2022-08-05T14:03:42.784Z,65
2022-08-05T14:13:43.595Z,57
2022-08-05T14:23:44.202Z,50
2022-08-05T14:33:56.832Z,46
2022-08-05T14:53:45.504Z,46
2022-08-05T15:03:46.560Z,45
2022-08-05T15:13:50.268Z,46
2022-08-05T15:23:48.053Z,47
2022-08-05T15:43:49.243Z,46
2022-08-05T15:53:50.484Z,46
2022-08-05T16:03:50.669Z,45
2022-08-05T16:13:50.977Z,47
2022-08-05T16:23:53.495Z,47
2022-08-05T16:33:51.831Z,48
2022-08-05T16:43:56.225Z,49
2022-08-05T16:54:03.671Z,50
2022-08-05T17:03:53.425Z,51
2022-08-05T17:13:54.871Z,51
2022-08-05T17:24:04.223Z,51
2022-08-05T17:33:54.539Z,51
2022-08-05T17:43:55.090Z,51
2022-08-05T17:53:56.080Z,52
2022-08-05T18:23:58.029Z,55
2022-08-05T18:33:58.123Z,56
2022-08-05T18:43:58.281Z,57
2022-08-05T18:53:58.875Z,58
2022-08-05T19:03:59.602Z,60
2022-08-05T19:14:00.842Z,61
2022-08-05T19:24:04.755Z,63
2022-08-05T19:34:00.983Z,65
2022-08-05T19:44:05.242Z,65
2022-08-05T19:54:03.908Z,67
2022-08-05T20:04:03.448Z,68
2022-08-05T20:14:11.889Z,70
2022-08-05T20:24:05.031Z,70
2022-08-05T20:44:13.039Z,71
2022-08-05T20:54:06.813Z,71
2022-08-05T21:14:08.178Z,71
2022-08-05T21:24:08.373Z,72
2022-08-05T21:34:10.472Z,73
2022-08-05T22:24:13.134Z,77
2022-08-05T22:34:12.971Z,78
2022-08-05T22:44:13.469Z,80
2022-08-05T22:54:13.581Z,81
2022-08-05T23:14:15.160Z,83
2022-08-05T23:24:15.467Z,84
2022-08-05T23:34:15.734Z,85
2022-08-05T23:44:16.576Z,86
2022-08-05T23:54:17.597Z,87
